sensor_id;sensor_type;location;lat;lon;timestamp;pressure;altitude;pressure_sealevel;temperature;humidity
43683;BME280;29285;52.128;21.060;2023-01-26T00:02:59;101233.28;;;2.33;100.00
43683;BME280;29285;52.128;21.060;2023-01-26T00:08:02;101232.02;;;2.31;100.00
43683;BME280;29285;52.128;21.060;2023-01-26T00:13:04;101236.05;;;2.29;100.00
43683;BME280;29285;52.128;21.060;2023-01-26T00:18:08;101235.14;;;2.27;100.00
43683;BME280;29285;52.128;21.060;2023-01-26T00:23:10;101234.21;;;2.24;100.00
43683;BME280;29285;52.128;21.060;2023-01-26T00:28:11;101228.41;;;2.25;100.00
43683;BME280;29285;52.128;21.060;2023-01-26T00:33:14;101222.81;;;2.27;100.00
43683;BME280;29285;52.128;21.060;2023-01-26T00:38:15;101223.02;;;2.28;100.00
43683;BME280;29285;52.128;21.060;2023-01-26T00:43:17;101215.94;;;2.26;100.00
43683;BME280;29285;52.128;21.060;2023-01-26T00:48:19;101210.70;;;2.22;100.00
43683;BME280;29285;52.128;21.060;2023-01-26T00:53:21;101207.79;;;2.22;100.00
43683;BME280;29285;52.128;21.060;2023-01-26T00:58:23;101208.16;;;2.23;100.00
43683;BME280;29285;52.128;21.060;2023-01-26T01:03:24;101205.59;;;2.23;100.00
43683;BME280;29285;52.128;21.060;2023-01-26T01:08:26;101209.81;;;2.27;100.00
43683;BME280;29285;52.128;21.060;2023-01-26T01:13:28;101202.94;;;2.26;100.00
43683;BME280;29285;52.128;21.060;2023-01-26T01:18:30;101200.38;;;2.21;100.00
43683;BME280;29285;52.128;21.060;2023-01-26T01:23:32;101197.58;;;2.19;100.00
43683;BME280;29285;52.128;21.060;2023-01-26T01:28:35;101190.83;;;2.12;100.00
43683;BME280;29285;52.128;21.060;2023-01-26T01:33:37;101182.59;;;2.11;100.00
43683;BME280;29285;52.128;21.060;2023-01-26T01:38:41;101169.94;;;2.06;100.00
43683;BME280;29285;52.128;21.060;2023-01-26T01:43:44;101166.73;;;2.03;100.00
43683;BME280;29285;52.128;21.060;2023-01-26T01:48:54;101157.91;;;2.00;100.00
43683;BME280;29285;52.128;21.060;2023-01-26T01:54:00;101152.48;;;2.01;100.00
43683;BME280;29285;52.128;21.060;2023-01-26T01:59:05;101144.99;;;2.03;100.00
43683;BME280;29285;52.128;21.060;2023-01-26T02:04:08;101138.97;;;2.07;100.00
43683;BME280;29285;52.128;21.060;2023-01-26T02:09:12;101128.79;;;2.10;100.00
43683;BME280;29285;52.128;21.060;2023-01-26T02:14:34;101134.86;;;2.07;100.00
43683;BME280;29285;52.128;21.060;2023-01-26T02:24:39;101119.11;;;2.07;100.00
43683;BME280;29285;52.128;21.060;2023-01-26T02:29:41;101109.83;;;2.06;100.00
43683;BME280;29285;52.128;21.060;2023-01-26T02:34:43;101107.00;;;2.08;100.00
43683;BME280;29285;52.128;21.060;2023-01-26T02:39:51;101106.60;;;2.06;100.00
43683;BME280;29285;52.128;21.060;2023-01-26T02:44:56;101098.54;;;2.06;100.00
43683;BME280;29285;52.128;21.060;2023-01-26T02:49:58;101096.43;;;2.09;100.00
43683;BME280;29285;52.128;21.060;2023-01-26T02:55:01;101086.24;;;2.13;100.00
43683;BME280;29285;52.128;21.060;2023-01-26T03:00:33;101085.48;;;2.16;100.00
43683;BME280;29285;52.128;21.060;2023-01-26T03:05:38;101071.70;;;2.18;100.00
43683;BME280;29285;52.128;21.060;2023-01-26T03:10:40;101067.61;;;2.19;100.00
43683;BME280;29285;52.128;21.060;2023-01-26T03:15:42;101065.42;;;2.20;100.00
43683;BME280;29285;52.128;21.060;2023-01-26T03:20:44;101062.59;;;2.23;100.00
43683;BME280;29285;52.128;21.060;2023-01-26T03:26:04;101062.19;;;2.27;100.00
43683;BME280;29285;52.128;21.060;2023-01-26T03:31:24;101052.80;;;2.28;100.00
43683;BME280;29285;52.128;21.060;2023-01-26T03:36:26;101041.83;;;2.28;100.00
43683;BME280;29285;52.128;21.060;2023-01-26T03:41:28;101036.67;;;2.28;100.00
43683;BME280;29285;52.128;21.060;2023-01-26T03:46:48;101039.66;;;2.29;100.00
43683;BME280;29285;52.128;21.060;2023-01-26T03:52:09;101032.17;;;2.31;100.00
43683;BME280;29285;52.128;21.060;2023-01-26T03:57:29;101029.95;;;2.32;100.00
43683;BME280;29285;52.128;21.060;2023-01-26T04:02:31;101029.46;;;2.32;100.00
43683;BME280;29285;52.128;21.060;2023-01-26T04:07:52;101022.26;;;2.32;100.00
43683;BME280;29285;52.128;21.060;2023-01-26T04:13:13;101021.27;;;2.33;100.00
43683;BME280;29285;52.128;21.060;2023-01-26T04:18:33;101012.89;;;2.33;100.00
43683;BME280;29285;52.128;21.060;2023-01-26T04:23:55;101017.75;;;2.36;100.00
43683;BME280;29285;52.128;21.060;2023-01-26T04:28:57;101016.31;;;2.34;100.00
43683;BME280;29285;52.128;21.060;2023-01-26T04:34:00;101011.95;;;2.31;100.00
43683;BME280;29285;52.128;21.060;2023-01-26T04:39:02;101007.52;;;2.26;100.00
43683;BME280;29285;52.128;21.060;2023-01-26T04:44:04;101013.67;;;2.19;100.00
43683;BME280;29285;52.128;21.060;2023-01-26T04:49:06;101013.86;;;2.14;100.00
43683;BME280;29285;52.128;21.060;2023-01-26T04:54:08;101015.23;;;2.14;100.00
43683;BME280;29285;52.128;21.060;2023-01-26T04:59:10;101013.29;;;2.18;100.00
43683;BME280;29285;52.128;21.060;2023-01-26T05:04:12;101015.14;;;2.22;100.00
43683;BME280;29285;52.128;21.060;2023-01-26T05:09:14;101006.64;;;2.24;100.00
43683;BME280;29285;52.128;21.060;2023-01-26T05:14:16;100996.09;;;2.27;100.00
43683;BME280;29285;52.128;21.060;2023-01-26T05:19:18;100995.14;;;2.30;100.00
43683;BME280;29285;52.128;21.060;2023-01-26T05:24:20;100996.71;;;2.31;100.00
43683;BME280;29285;52.128;21.060;2023-01-26T05:29:21;100995.92;;;2.33;100.00
43683;BME280;29285;52.128;21.060;2023-01-26T05:34:23;100992.90;;;2.35;100.00
43683;BME280;29285;52.128;21.060;2023-01-26T05:39:25;100991.55;;;2.36;100.00
43683;BME280;29285;52.128;21.060;2023-01-26T05:44:27;100990.73;;;2.37;100.00
43683;BME280;29285;52.128;21.060;2023-01-26T05:49:30;100994.95;;;2.35;100.00
43683;BME280;29285;52.128;21.060;2023-01-26T05:54:32;100997.80;;;2.33;100.00
43683;BME280;29285;52.128;21.060;2023-01-26T05:59:34;100996.72;;;2.31;100.00
43683;BME280;29285;52.128;21.060;2023-01-26T06:04:36;100999.79;;;2.31;100.00
43683;BME280;29285;52.128;21.060;2023-01-26T06:09:38;100997.87;;;2.29;100.00
43683;BME280;29285;52.128;21.060;2023-01-26T06:14:41;100997.27;;;2.33;100.00
43683;BME280;29285;52.128;21.060;2023-01-26T06:19:43;101001.64;;;2.35;100.00
43683;BME280;29285;52.128;21.060;2023-01-26T06:24:45;101005.27;;;2.37;100.00
43683;BME280;29285;52.128;21.060;2023-01-26T06:29:47;101006.62;;;2.36;100.00
43683;BME280;29285;52.128;21.060;2023-01-26T06:34:48;101005.90;;;2.35;100.00
43683;BME280;29285;52.128;21.060;2023-01-26T06:39:50;101002.55;;;2.37;100.00
43683;BME280;29285;52.128;21.060;2023-01-26T06:44:52;101000.94;;;2.41;100.00
43683;BME280;29285;52.128;21.060;2023-01-26T06:49:54;100994.09;;;2.42;100.00
43683;BME280;29285;52.128;21.060;2023-01-26T06:54:57;100994.97;;;2.42;100.00
43683;BME280;29285;52.128;21.060;2023-01-26T07:00:01;100997.38;;;2.43;100.00
43683;BME280;29285;52.128;21.060;2023-01-26T07:05:03;100986.13;;;2.38;100.00
43683;BME280;29285;52.128;21.060;2023-01-26T07:10:05;100991.66;;;2.34;100.00
43683;BME280;29285;52.128;21.060;2023-01-26T07:15:08;100991.36;;;2.35;100.00
43683;BME280;29285;52.128;21.060;2023-01-26T07:20:12;100994.56;;;2.46;100.00
43683;BME280;29285;52.128;21.060;2023-01-26T07:25:14;100987.50;;;2.58;100.00
43683;BME280;29285;52.128;21.060;2023-01-26T07:30:16;100987.58;;;2.66;100.00
43683;BME280;29285;52.128;21.060;2023-01-26T07:35:17;100983.02;;;2.69;100.00
43683;BME280;29285;52.128;21.060;2023-01-26T07:40:19;100976.28;;;2.74;100.00
43683;BME280;29285;52.128;21.060;2023-01-26T07:45:21;100968.19;;;2.72;100.00
43683;BME280;29285;52.128;21.060;2023-01-26T07:50:23;100964.84;;;2.62;100.00
43683;BME280;29285;52.128;21.060;2023-01-26T07:55:27;100964.66;;;2.42;100.00
43683;BME280;29285;52.128;21.060;2023-01-26T08:00:29;100968.67;;;2.39;100.00
43683;BME280;29285;52.128;21.060;2023-01-26T08:05:32;100969.77;;;2.41;100.00
43683;BME280;29285;52.128;21.060;2023-01-26T08:10:34;100964.16;;;2.42;100.00
43683;BME280;29285;52.128;21.060;2023-01-26T08:15:35;100962.30;;;2.18;100.00
43683;BME280;29285;52.128;21.060;2023-01-26T08:20:37;100961.51;;;2.15;100.00
43683;BME280;29285;52.128;21.060;2023-01-26T08:25:39;100960.63;;;2.13;100.00
43683;BME280;29285;52.128;21.060;2023-01-26T08:30:41;100960.56;;;2.18;100.00
43683;BME280;29285;52.128;21.060;2023-01-26T08:35:43;100961.66;;;2.21;100.00
43683;BME280;29285;52.128;21.060;2023-01-26T08:40:50;100965.48;;;2.04;100.00
43683;BME280;29285;52.128;21.060;2023-01-26T08:45:52;100959.69;;;1.93;100.00
43683;BME280;29285;52.128;21.060;2023-01-26T08:50:55;100960.26;;;1.95;100.00
43683;BME280;29285;52.128;21.060;2023-01-26T08:56:00;100963.91;;;1.80;100.00
43683;BME280;29285;52.128;21.060;2023-01-26T09:01:04;100967.88;;;1.69;100.00
43683;BME280;29285;52.128;21.060;2023-01-26T09:06:08;100974.41;;;1.59;100.00
43683;BME280;29285;52.128;21.060;2023-01-26T09:11:11;100978.01;;;1.54;100.00
43683;BME280;29285;52.128;21.060;2023-01-26T09:16:17;100982.13;;;1.60;100.00
43683;BME280;29285;52.128;21.060;2023-01-26T09:21:20;100985.20;;;1.59;100.00
43683;BME280;29285;52.128;21.060;2023-01-26T09:26:24;100985.27;;;1.56;100.00
43683;BME280;29285;52.128;21.060;2023-01-26T09:31:26;100986.77;;;1.50;100.00
43683;BME280;29285;52.128;21.060;2023-01-26T09:36:28;100982.89;;;1.45;100.00
43683;BME280;29285;52.128;21.060;2023-01-26T09:41:48;100979.58;;;1.38;100.00
43683;BME280;29285;52.128;21.060;2023-01-26T09:53:48;100969.98;;;1.37;100.00
43683;BME280;29285;52.128;21.060;2023-01-26T09:58:56;100968.53;;;1.57;100.00
43683;BME280;29285;52.128;21.060;2023-01-26T10:04:09;100957.82;;;1.59;100.00
43683;BME280;29285;52.128;21.060;2023-01-26T10:09:21;100952.04;;;1.72;100.00
43683;BME280;29285;52.128;21.060;2023-01-26T10:14:35;100951.27;;;1.92;100.00
43683;BME280;29285;52.128;21.060;2023-01-26T10:19:48;100938.45;;;2.05;100.00
43683;BME280;29285;52.128;21.060;2023-01-26T10:24:52;100938.15;;;2.00;100.00
43683;BME280;29285;52.128;21.060;2023-01-26T10:29:55;100937.02;;;2.02;100.00
43683;BME280;29285;52.128;21.060;2023-01-26T10:34:57;100933.83;;;2.10;100.00
43683;BME280;29285;52.128;21.060;2023-01-26T10:40:04;100924.05;;;2.22;100.00
43683;BME280;29285;52.128;21.060;2023-01-26T10:45:25;100917.02;;;2.35;100.00
43683;BME280;29285;52.128;21.060;2023-01-26T10:50:28;100909.17;;;2.49;100.00
43683;BME280;29285;52.128;21.060;2023-01-26T10:55:33;100898.17;;;2.54;100.00
43683;BME280;29285;52.128;21.060;2023-01-26T11:00:37;100897.79;;;2.59;100.00
43683;BME280;29285;52.128;21.060;2023-01-26T11:05:42;100888.87;;;2.26;100.00
43683;BME280;29285;52.128;21.060;2023-01-26T11:10:51;100886.23;;;1.92;100.00
43683;BME280;29285;52.128;21.060;2023-01-26T11:16:11;100876.88;;;1.82;100.00
43683;BME280;29285;52.128;21.060;2023-01-26T11:21:28;100868.20;;;1.77;100.00
43683;BME280;29285;52.128;21.060;2023-01-26T11:37:38;100856.63;;;1.80;100.00
43683;BME280;29285;52.128;21.060;2023-01-26T11:48:03;100836.19;;;2.08;100.00
43683;BME280;29285;52.128;21.060;2023-01-26T11:58:44;100828.38;;;2.11;100.00
43683;BME280;29285;52.128;21.060;2023-01-26T12:03:49;100820.70;;;2.19;100.00
43683;BME280;29285;52.128;21.060;2023-01-26T12:14:34;100817.88;;;2.15;100.00
43683;BME280;29285;52.128;21.060;2023-01-26T12:19:56;100812.78;;;2.17;100.00
43683;BME280;29285;52.128;21.060;2023-01-26T12:36:23;100802.51;;;1.90;100.00
43683;BME280;29285;52.128;21.060;2023-01-26T12:46:55;100813.57;;;1.95;100.00
43683;BME280;29285;52.128;21.060;2023-01-26T12:52:16;100806.20;;;2.07;100.00
43683;BME280;29285;52.128;21.060;2023-01-26T12:57:24;100809.13;;;2.08;100.00
43683;BME280;29285;52.128;21.060;2023-01-26T13:02:29;100814.27;;;2.15;100.00
43683;BME280;29285;52.128;21.060;2023-01-26T13:07:35;100809.41;;;2.12;100.00
43683;BME280;29285;52.128;21.060;2023-01-26T13:18:55;100810.52;;;2.03;100.00
43683;BME280;29285;52.128;21.060;2023-01-26T13:23:57;100797.73;;;1.91;100.00
43683;BME280;29285;52.128;21.060;2023-01-26T13:40:13;100787.71;;;2.20;100.00
43683;BME280;29285;52.128;21.060;2023-01-26T13:50:42;100786.34;;;2.20;100.00
43683;BME280;29285;52.128;21.060;2023-01-26T13:55:53;100781.36;;;2.27;100.00
43683;BME280;29285;52.128;21.060;2023-01-26T14:01:03;100782.42;;;2.28;100.00
43683;BME280;29285;52.128;21.060;2023-01-26T14:06:20;100785.20;;;2.23;100.00
43683;BME280;29285;52.128;21.060;2023-01-26T14:11:25;100788.20;;;2.20;99.98
43683;BME280;29285;52.128;21.060;2023-01-26T14:16:30;100783.23;;;2.19;100.00
43683;BME280;29285;52.128;21.060;2023-01-26T14:21:32;100783.30;;;2.29;100.00
43683;BME280;29285;52.128;21.060;2023-01-26T14:26:46;100779.66;;;2.34;100.00
43683;BME280;29285;52.128;21.060;2023-01-26T14:31:53;100780.15;;;2.40;100.00
43683;BME280;29285;52.128;21.060;2023-01-26T14:37:13;100774.16;;;2.48;100.00
43683;BME280;29285;52.128;21.060;2023-01-26T14:42:17;100767.65;;;2.55;100.00
43683;BME280;29285;52.128;21.060;2023-01-26T14:47:24;100766.70;;;2.58;100.00
43683;BME280;29285;52.128;21.060;2023-01-26T14:52:33;100764.02;;;2.61;100.00
43683;BME280;29285;52.128;21.060;2023-01-26T14:57:36;100754.77;;;2.61;99.97
43683;BME280;29285;52.128;21.060;2023-01-26T15:02:42;100758.58;;;2.56;100.00
43683;BME280;29285;52.128;21.060;2023-01-26T15:07:49;100757.23;;;2.57;99.98
43683;BME280;29285;52.128;21.060;2023-01-26T15:13:06;100749.17;;;2.56;99.90
43683;BME280;29285;52.128;21.060;2023-01-26T15:18:19;100754.35;;;2.57;99.90
43683;BME280;29285;52.128;21.060;2023-01-26T15:23:25;100757.60;;;2.58;99.91
43683;BME280;29285;52.128;21.060;2023-01-26T15:28:27;100749.00;;;2.63;99.95
43683;BME280;29285;52.128;21.060;2023-01-26T15:38:47;100757.77;;;2.64;99.79
43683;BME280;29285;52.128;21.060;2023-01-26T15:43:49;100752.92;;;2.63;99.73
43683;BME280;29285;52.128;21.060;2023-01-26T15:48:51;100757.48;;;2.67;99.74
43683;BME280;29285;52.128;21.060;2023-01-26T15:53:53;100759.56;;;2.69;99.56
43683;BME280;29285;52.128;21.060;2023-01-26T15:58:55;100763.38;;;2.70;99.50
43683;BME280;29285;52.128;21.060;2023-01-26T16:03:57;100765.27;;;2.70;99.50
43683;BME280;29285;52.128;21.060;2023-01-26T16:08:59;100771.47;;;2.71;99.65
43683;BME280;29285;52.128;21.060;2023-01-26T16:14:01;100767.83;;;2.70;99.49
43683;BME280;29285;52.128;21.060;2023-01-26T16:19:03;100767.83;;;2.70;99.26
43683;BME280;29285;52.128;21.060;2023-01-26T16:24:05;100769.56;;;2.71;99.31
43683;BME280;29285;52.128;21.060;2023-01-26T16:29:07;100771.27;;;2.71;99.56
43683;BME280;29285;52.128;21.060;2023-01-26T16:34:09;100777.08;;;2.62;98.83
43683;BME280;29285;52.128;21.060;2023-01-26T16:39:11;100776.92;;;2.56;98.90
43683;BME280;29285;52.128;21.060;2023-01-26T16:44:15;100778.30;;;2.42;98.31
43683;BME280;29285;52.128;21.060;2023-01-26T16:49:22;100773.51;;;2.35;98.34
43683;BME280;29285;52.128;21.060;2023-01-26T16:54:24;100776.66;;;2.38;98.29
43683;BME280;29285;52.128;21.060;2023-01-26T16:59:26;100778.17;;;2.44;98.44
43683;BME280;29285;52.128;21.060;2023-01-26T17:04:27;100779.83;;;2.48;98.23
43683;BME280;29285;52.128;21.060;2023-01-26T17:09:29;100778.88;;;2.51;98.34
43683;BME280;29285;52.128;21.060;2023-01-26T17:14:31;100779.63;;;2.54;98.58
43683;BME280;29285;52.128;21.060;2023-01-26T17:19:33;100777.83;;;2.58;98.51
43683;BME280;29285;52.128;21.060;2023-01-26T17:24:35;100772.39;;;2.75;98.47
43683;BME280;29285;52.128;21.060;2023-01-26T17:29:37;100773.90;;;2.88;98.81
43683;BME280;29285;52.128;21.060;2023-01-26T17:34:42;100771.98;;;2.87;98.78
43683;BME280;29285;52.128;21.060;2023-01-26T17:39:44;100764.28;;;2.64;97.99
43683;BME280;29285;52.128;21.060;2023-01-26T17:44:46;100766.40;;;2.60;97.79
43683;BME280;29285;52.128;21.060;2023-01-26T17:49:49;100763.15;;;2.60;97.58
43683;BME280;29285;52.128;21.060;2023-01-26T17:54:50;100756.89;;;2.57;97.25
43683;BME280;29285;52.128;21.060;2023-01-26T17:59:52;100751.88;;;2.54;97.20
43683;BME280;29285;52.128;21.060;2023-01-26T18:04:54;100750.45;;;2.52;96.85
43683;BME280;29285;52.128;21.060;2023-01-26T18:09:56;100753.53;;;2.51;97.19
43683;BME280;29285;52.128;21.060;2023-01-26T18:14:57;100759.70;;;2.51;97.25
43683;BME280;29285;52.128;21.060;2023-01-26T18:19:59;100762.06;;;2.50;96.66
43683;BME280;29285;52.128;21.060;2023-01-26T18:25:02;100760.83;;;2.42;96.93
43683;BME280;29285;52.128;21.060;2023-01-26T18:30:04;100758.47;;;2.29;96.35
43683;BME280;29285;52.128;21.060;2023-01-26T18:35:06;100759.55;;;2.31;96.44
43683;BME280;29285;52.128;21.060;2023-01-26T18:40:09;100758.66;;;2.38;96.55
43683;BME280;29285;52.128;21.060;2023-01-26T18:45:12;100761.27;;;2.38;96.59
43683;BME280;29285;52.128;21.060;2023-01-26T18:50:14;100761.69;;;2.35;96.59
43683;BME280;29285;52.128;21.060;2023-01-26T18:55:16;100763.30;;;2.37;96.51
43683;BME280;29285;52.128;21.060;2023-01-26T19:00:18;100763.77;;;2.36;96.39
43683;BME280;29285;52.128;21.060;2023-01-26T19:05:20;100765.14;;;2.36;96.53
43683;BME280;29285;52.128;21.060;2023-01-26T19:10:22;100765.41;;;2.12;96.07
43683;BME280;29285;52.128;21.060;2023-01-26T19:15:24;100763.01;;;2.12;95.75
43683;BME280;29285;52.128;21.060;2023-01-26T19:20:26;100769.90;;;2.20;95.80
43683;BME280;29285;52.128;21.060;2023-01-26T19:25:27;100771.48;;;2.29;96.07
43683;BME280;29285;52.128;21.060;2023-01-26T19:30:29;100771.98;;;2.35;96.07
43683;BME280;29285;52.128;21.060;2023-01-26T19:35:31;100775.34;;;2.40;96.30
43683;BME280;29285;52.128;21.060;2023-01-26T19:40:33;100772.69;;;2.43;96.35
43683;BME280;29285;52.128;21.060;2023-01-26T19:45:35;100773.27;;;2.46;96.32
43683;BME280;29285;52.128;21.060;2023-01-26T19:50:36;100766.11;;;2.47;96.46
43683;BME280;29285;52.128;21.060;2023-01-26T19:55:38;100763.80;;;2.45;96.19
43683;BME280;29285;52.128;21.060;2023-01-26T20:00:40;100765.66;;;2.43;96.11
43683;BME280;29285;52.128;21.060;2023-01-26T20:05:42;100765.55;;;2.46;96.35
43683;BME280;29285;52.128;21.060;2023-01-26T20:10:44;100766.09;;;2.47;95.89
43683;BME280;29285;52.128;21.060;2023-01-26T20:15:46;100764.21;;;2.47;96.00
43683;BME280;29285;52.128;21.060;2023-01-26T20:20:52;100765.56;;;2.46;95.68
43683;BME280;29285;52.128;21.060;2023-01-26T20:26:06;100759.23;;;2.47;95.75
43683;BME280;29285;52.128;21.060;2023-01-26T20:31:12;100754.83;;;2.48;95.95
43683;BME280;29285;52.128;21.060;2023-01-26T20:36:18;100752.09;;;2.49;95.63
43683;BME280;29285;52.128;21.060;2023-01-26T20:41:23;100754.50;;;2.49;95.75
43683;BME280;29285;52.128;21.060;2023-01-26T20:46:33;100759.33;;;2.50;95.70
43683;BME280;29285;52.128;21.060;2023-01-26T20:51:38;100756.28;;;2.52;95.70
43683;BME280;29285;52.128;21.060;2023-01-26T20:56:43;100757.30;;;2.52;95.25
43683;BME280;29285;52.128;21.060;2023-01-26T21:01:50;100752.77;;;2.48;95.35
43683;BME280;29285;52.128;21.060;2023-01-26T21:06:52;100754.48;;;2.48;95.41
43683;BME280;29285;52.128;21.060;2023-01-26T21:11:55;100752.23;;;2.47;95.43
43683;BME280;29285;52.128;21.060;2023-01-26T21:16:57;100751.45;;;2.44;95.25
43683;BME280;29285;52.128;21.060;2023-01-26T21:21:59;100753.33;;;2.43;95.32
43683;BME280;29285;52.128;21.060;2023-01-26T21:27:01;100751.08;;;2.42;95.18
43683;BME280;29285;52.128;21.060;2023-01-26T21:32:03;100750.91;;;2.42;95.36
43683;BME280;29285;52.128;21.060;2023-01-26T21:37:05;100747.80;;;2.42;95.15
43683;BME280;29285;52.128;21.060;2023-01-26T21:42:08;100753.63;;;2.42;95.24
43683;BME280;29285;52.128;21.060;2023-01-26T21:47:10;100757.05;;;2.41;94.90
43683;BME280;29285;52.128;21.060;2023-01-26T21:52:11;100756.35;;;2.41;94.96
43683;BME280;29285;52.128;21.060;2023-01-26T21:57:32;100752.87;;;2.38;95.20
43683;BME280;29285;52.128;21.060;2023-01-26T22:02:52;100748.90;;;2.30;94.96
43683;BME280;29285;52.128;21.060;2023-01-26T22:07:55;100746.91;;;2.32;94.46
43683;BME280;29285;52.128;21.060;2023-01-26T22:12:56;100743.02;;;2.35;94.55
43683;BME280;29285;52.128;21.060;2023-01-26T22:17:58;100743.41;;;2.36;94.56
43683;BME280;29285;52.128;21.060;2023-01-26T22:23:00;100746.13;;;2.35;94.86
43683;BME280;29285;52.128;21.060;2023-01-26T22:28:02;100743.20;;;2.35;94.74
43683;BME280;29285;52.128;21.060;2023-01-26T22:33:04;100741.86;;;2.37;94.57
43683;BME280;29285;52.128;21.060;2023-01-26T22:38:06;100744.27;;;2.37;94.47
43683;BME280;29285;52.128;21.060;2023-01-26T22:43:08;100742.02;;;2.36;94.63
43683;BME280;29285;52.128;21.060;2023-01-26T22:48:10;100739.13;;;2.36;94.59
43683;BME280;29285;52.128;21.060;2023-01-26T22:53:12;100737.75;;;2.36;94.59
43683;BME280;29285;52.128;21.060;2023-01-26T22:58:15;100737.09;;;2.37;94.09
43683;BME280;29285;52.128;21.060;2023-01-26T23:03:17;100732.13;;;2.37;94.42
43683;BME280;29285;52.128;21.060;2023-01-26T23:26:20;100728.94;;;2.40;94.28
43683;BME280;29285;52.128;21.060;2023-01-26T23:31:23;100731.96;;;2.38;94.35
43683;BME280;29285;52.128;21.060;2023-01-26T23:36:25;100726.98;;;2.38;93.96
43683;BME280;29285;52.128;21.060;2023-01-26T23:41:27;100718.47;;;2.39;93.98
43683;BME280;29285;52.128;21.060;2023-01-26T23:46:29;100720.70;;;2.40;93.98
43683;BME280;29285;52.128;21.060;2023-01-26T23:51:30;100717.84;;;2.41;93.94
43683;BME280;29285;52.128;21.060;2023-01-26T23:56:33;100717.31;;;2.41;93.91
